createdAt,value
2022-11-11T00:04:42.278Z,7.50
2022-11-11T00:14:46.105Z,7.50
2022-11-11T00:25:10.480Z,7.40
2022-11-11T00:30:12.395Z,7.20
2022-11-11T00:35:32.772Z,7.20
2022-11-11T00:40:34.498Z,7.20
2022-11-11T00:45:36.200Z,7.30
2022-11-11T00:50:58.830Z,7.10
2022-11-11T00:56:00.658Z,7.10
2022-11-11T01:01:02.397Z,7.10
2022-11-11T01:06:05.305Z,7.00
2022-11-11T01:11:20.298Z,6.90
2022-11-11T01:16:24.947Z,6.90
2022-11-11T01:21:26.650Z,9.40
2022-11-11T01:26:31.436Z,10.00
2022-11-11T01:31:33.471Z,6.70
2022-11-11T01:36:35.393Z,9.70
2022-11-11T01:46:52.730Z,6.90
2022-11-11T01:52:16.508Z,6.80
2022-11-11T01:57:45.402Z,6.60
2022-11-11T02:02:54.769Z,6.70
2022-11-11T02:07:59.635Z,6.60
2022-11-11T02:13:20.466Z,6.40
2022-11-11T02:18:22.678Z,6.30
2022-11-11T02:23:44.645Z,6.30
2022-11-11T02:28:46.635Z,6.30
2022-11-11T02:33:48.307Z,6.30
2022-11-11T02:38:50.546Z,9.30
2022-11-11T02:43:52.207Z,6.50
2022-11-11T02:48:54.015Z,7.00
2022-11-11T02:53:59.018Z,6.60
2022-11-11T03:09:05.727Z,6.20
2022-11-11T03:14:08.237Z,6.30
2022-11-11T03:19:10.146Z,7.40
2022-11-11T03:24:11.918Z,6.30
2022-11-11T03:39:20.545Z,6.20
2022-11-11T03:44:22.326Z,6.20
2022-11-11T03:49:24.008Z,6.40
2022-11-11T03:54:25.718Z,6.30
2022-11-11T03:59:27.358Z,6.50
2022-11-11T04:15:29.435Z,6.30
2022-11-11T04:20:49.698Z,6.00
2022-11-11T04:25:53.401Z,6.00
2022-11-11T04:30:55.083Z,6.20
2022-11-11T04:46:06.864Z,6.40
2022-11-11T05:01:49.993Z,6.20
2022-11-11T05:07:10.356Z,6.30
2022-11-11T05:12:12.080Z,6.00
2022-11-11T05:17:32.420Z,5.90
2022-11-11T05:22:41.857Z,6.20
2022-11-11T05:27:44.052Z,6.10
2022-11-11T05:32:45.998Z,6.00
2022-11-11T05:38:06.457Z,6.20
2022-11-11T05:43:08.125Z,6.10
2022-11-11T05:48:09.760Z,6.00
2022-11-11T05:53:11.400Z,6.00
2022-11-11T05:58:13.030Z,5.90
2022-11-11T06:03:14.702Z,6.00
2022-11-11T06:13:18.636Z,6.10
2022-11-11T06:18:20.283Z,6.00
2022-11-11T06:28:25.219Z,6.20
2022-11-11T06:48:37.544Z,6.20
2022-11-11T06:58:41.496Z,6.20
2022-11-11T07:08:45.432Z,6.30
2022-11-11T07:13:47.140Z,7.70
2022-11-11T07:28:53.221Z,6.70
2022-11-11T07:33:55.025Z,6.70
2022-11-11T07:38:56.729Z,6.90
2022-11-11T07:49:00.524Z,7.20
2022-11-11T07:54:02.338Z,7.30
2022-11-11T08:04:06.283Z,7.30
2022-11-11T08:09:07.992Z,7.40
2022-11-11T08:19:12.147Z,7.60
2022-11-11T08:25:02.167Z,8.10
2022-11-11T08:29:35.740Z,8.10
2022-11-11T08:34:37.383Z,8.20
2022-11-11T08:39:39.063Z,8.80
2022-11-11T08:44:40.695Z,9.70
2022-11-11T08:49:42.582Z,10.50
2022-11-11T08:54:44.302Z,10.30
2022-11-11T08:59:45.991Z,11.20
2022-11-11T09:04:51.680Z,11.30
2022-11-11T09:09:56.992Z,13.00
2022-11-11T09:14:58.773Z,11.90
2022-11-11T09:20:00.458Z,11.70
2022-11-11T09:25:02.311Z,11.80
2022-11-11T09:30:05.642Z,12.00
2022-11-11T09:35:07.657Z,11.50
2022-11-11T09:40:21.095Z,12.00
2022-11-11T09:46:10.771Z,11.50
2022-11-11T09:51:20.135Z,11.70
2022-11-11T09:56:32.657Z,12.00
2022-11-11T10:01:56.597Z,12.10
2022-11-11T10:07:14.005Z,12.20
2022-11-11T10:12:16.924Z,12.30
2022-11-11T10:18:04.434Z,12.50
2022-11-11T10:23:10.755Z,13.20
2022-11-11T10:28:21.526Z,13.20
2022-11-11T10:33:28.730Z,13.40
2022-11-11T10:38:52.268Z,13.60
2022-11-11T10:43:54.017Z,14.20
2022-11-11T10:49:14.118Z,14.70
2022-11-11T10:54:21.498Z,15.90
2022-11-11T10:59:31.334Z,17.20
2022-11-11T11:04:41.840Z,19.50
2022-11-11T11:10:02.673Z,21.30
2022-11-11T11:15:16.830Z,22.90
2022-11-11T11:20:20.725Z,24.20
2022-11-11T11:25:23.946Z,25.90
2022-11-11T11:30:26.487Z,26.00
2022-11-11T11:35:45.058Z,26.70
2022-11-11T11:40:49.961Z,24.50
2022-11-11T11:46:06.888Z,24.30
2022-11-11T11:51:28.648Z,26.10
2022-11-11T11:56:41.730Z,24.60
2022-11-11T12:02:02.133Z,24.90
2022-11-11T12:07:10.083Z,27.00
2022-11-11T12:12:24.993Z,25.70
2022-11-11T12:17:46.904Z,24.20
2022-11-11T12:22:56.537Z,21.70
2022-11-11T12:28:15.965Z,20.20
2022-11-11T12:33:58.798Z,18.40
2022-11-11T12:39:11.294Z,18.40
2022-11-11T12:44:14.665Z,17.90
2022-11-11T12:50:14.090Z,18.40
2022-11-11T12:55:22.617Z,19.00
2022-11-11T13:00:26.168Z,18.50
2022-11-11T13:05:42.915Z,18.20
2022-11-11T13:11:26.453Z,18.20
2022-11-11T13:16:28.313Z,19.40
2022-11-11T13:21:34.169Z,19.40
2022-11-11T13:26:43.327Z,20.40
2022-11-11T13:31:47.236Z,21.80
2022-11-11T13:36:53.060Z,22.10
2022-11-11T13:41:57.418Z,21.10
2022-11-11T13:47:11.541Z,20.90
2022-11-11T13:52:28.173Z,23.10
2022-11-11T13:57:33.136Z,22.00
2022-11-11T14:02:35.527Z,20.60
2022-11-11T14:07:49.158Z,19.60
2022-11-11T14:12:51.863Z,18.90
2022-11-11T14:17:53.718Z,19.50
2022-11-11T14:22:55.854Z,19.50
2022-11-11T14:27:57.631Z,18.60
2022-11-11T14:33:19.657Z,19.80
2022-11-11T14:38:30.849Z,20.90
2022-11-11T14:43:32.459Z,19.50
2022-11-11T14:48:52.048Z,18.60
2022-11-11T14:53:54.236Z,17.50
2022-11-11T14:59:04.876Z,16.10
2022-11-11T15:04:07.414Z,15.90
2022-11-11T15:09:24.078Z,15.80
2022-11-11T15:15:15.079Z,15.40
2022-11-11T15:20:43.857Z,15.10
2022-11-11T15:25:51.031Z,14.60
2022-11-11T15:30:55.492Z,14.20
2022-11-11T15:36:00.239Z,13.10
2022-11-11T15:46:06.332Z,13.40
2022-11-11T15:51:23.085Z,13.10
2022-11-11T15:56:32.702Z,13.00
2022-11-11T16:01:34.571Z,12.50
2022-11-11T16:11:40.365Z,13.20
2022-11-11T16:16:42.048Z,12.90
2022-11-11T16:22:00.889Z,11.90
2022-11-11T16:27:04.974Z,11.80
2022-11-11T16:32:24.733Z,11.80
2022-11-11T16:42:31.818Z,11.60
2022-11-11T16:52:57.979Z,11.40
2022-11-11T16:58:01.933Z,11.20
2022-11-11T17:03:12.555Z,12.10
2022-11-11T17:08:40.118Z,11.00
2022-11-11T17:13:42.842Z,10.90
2022-11-11T17:18:45.030Z,11.00
2022-11-11T17:23:46.788Z,10.90
2022-11-11T17:28:48.495Z,10.80
2022-11-11T17:33:50.402Z,10.60
2022-11-11T17:38:52.100Z,12.20
2022-11-11T17:43:53.807Z,10.40
2022-11-11T17:48:56.426Z,10.40
2022-11-11T17:59:01.237Z,10.30
2022-11-11T18:04:04.631Z,10.30
2022-11-11T18:09:06.345Z,10.20
2022-11-11T18:24:14.954Z,10.20
2022-11-11T18:29:16.630Z,10.20
2022-11-11T18:34:18.469Z,10.00
2022-11-11T18:39:20.190Z,7.80
2022-11-11T18:44:21.928Z,10.00
2022-11-11T18:49:23.570Z,10.20
2022-11-11T18:59:32.438Z,9.80
2022-11-11T19:09:36.372Z,9.70
2022-11-11T19:14:40.400Z,9.60
2022-11-11T19:19:42.065Z,9.60
2022-11-11T19:24:43.846Z,9.60
2022-11-11T19:29:45.546Z,12.90
2022-11-11T19:34:47.212Z,9.50
2022-11-11T19:44:51.162Z,9.20
2022-11-11T19:50:19.980Z,9.10
2022-11-11T20:00:24.424Z,9.00
2022-11-11T20:05:26.170Z,9.00
2022-11-11T20:10:27.850Z,9.20
2022-11-11T20:15:29.497Z,9.10
2022-11-11T20:20:31.173Z,9.20
2022-11-11T20:25:36.529Z,9.70
2022-11-11T20:30:38.162Z,9.20
2022-11-11T20:35:40.450Z,9.10
2022-11-11T20:40:42.176Z,9.30
2022-11-11T20:45:43.853Z,8.70
2022-11-11T21:10:58.267Z,8.60
2022-11-11T21:16:08.690Z,8.60
2022-11-11T21:21:18.332Z,8.60
2022-11-11T21:26:20.372Z,8.50
2022-11-11T21:31:27.255Z,9.50
2022-11-11T21:36:32.457Z,8.40
2022-11-11T21:41:36.884Z,8.70
2022-11-11T21:46:39.535Z,8.70
2022-11-11T22:11:50.404Z,8.30
2022-11-11T22:21:54.306Z,8.40
2022-11-11T22:26:56.015Z,8.30
2022-11-11T22:31:59.198Z,8.40
2022-11-11T22:47:05.089Z,8.10
2022-11-11T22:52:06.779Z,8.10
2022-11-11T22:57:09.507Z,7.70
2022-11-11T23:07:13.465Z,7.80
2022-11-11T23:12:15.183Z,7.90
2022-11-11T23:17:16.830Z,7.90
2022-11-11T23:22:18.578Z,7.80
2022-11-11T23:32:22.367Z,7.80
2022-11-11T23:37:24.000Z,7.60
2022-11-11T23:42:25.658Z,7.80
2022-11-11T23:52:29.489Z,7.50
